KHVS/HVS METAR and TAF weather

Enter ICAO airport designator
Station Type Date Time Source
KHVS METAR 2022/01/29 09:35 UTC NOAA

KHVS 290935Z AUTO 32008G13KT 280V360 1SM -SN OVC003 M00/M01 A2983 RMK AO2


Station Type Date Time Source
KHVS Decoded METAR 2022/01/29 09:35 UTC NOAA

Station name not available
Jan 29, 2022 - 04:35 AM EST / 2022.01.29 0935 UTC
Wind: from the NW (320 degrees) at 9 MPH (8 KT) gusting to 15 MPH (13 KT) (direction variable):0
Visibility: 1 mile(s):0
Sky conditions: overcast
Weather: light snow
Temperature: 32 F (0 C)
Windchill: 24 F (-4 C):1
Dew Point: 30 F (-1 C)
Relative Humidity: 92%
Pressure (altimeter): 29.83 in. Hg (1010 hPa)
ob: KHVS 290935Z AUTO 32008G13KT 280V360 1SM -SN OVC003 M00/M01 A2983 RMK AO2
cycle: 9

Station Type Date Time Source
KHVS TAF UTC NOAA

Error!

Example: see airport list